GMMC

Casablanca-Anfa Airport

Airport
ICAO code
GMMC
IATA Code
CAS
Summary
ICAO Region
AFI
ICAO Territory
Location

Casablanca, Grand Casablanca

Serving
Casablanca
Elevation
203 ft
Coordinates
33° 33' 24" N , 7° 39' 48" W
KCC
Metar
Observation
GMMC 241100Z 34006KT 8000 SCT016 26/20 Q1016
Station
Casablanca
Date/Time
2022-09-24 11:00:00
Wind direction
340°
Wind speed
06 kts
Lowest cloud amount
scattered clouds
Temperature
26°C
Dew point
20°C
Humidity
69%
QNH
1016 hPa
Weather condition
n/a

Description

International airport serving Casablanca, Morroco.

Climatology

Semi-arid/Dry-summer subtropical ”Mediterranean" climate (Köppen climate classification Csb/BSh) - characterized by hot, dry summers and mild winters. During the summer, subtropical high pressure cells dominate, making rainfall unlikely except for the occasional thunderstorm.

Runways

Designator Length Width Surface Rops
3/21 1880 0 UNK Yes/Yes

Airport map

Aerial View

SKYbrary Partners:

Safety knowledge contributed by: